createdAt,value
2023-02-25T00:00:20.140Z,74.94
2023-02-25T00:02:58.989Z,76.29
2023-02-25T00:05:26.333Z,76.48
2023-02-25T00:08:00.025Z,75.07
2023-02-25T00:10:27.066Z,75.85
2023-02-25T00:13:15.979Z,76.47
2023-02-25T00:15:44.276Z,76.19
2023-02-25T00:18:18.018Z,76.52
2023-02-25T00:20:44.740Z,75.80
2023-02-25T00:23:19.012Z,76.90
2023-02-25T00:25:55.852Z,77.55
2023-02-25T00:28:22.749Z,76.75
2023-02-25T00:30:58.498Z,77.28
2023-02-25T00:33:25.767Z,76.59
2023-02-25T00:36:02.531Z,76.51
2023-02-25T00:38:29.693Z,76.37
2023-02-25T00:41:06.890Z,77.16
2023-02-25T00:43:34.471Z,76.92
2023-02-25T00:46:16.238Z,77.36
2023-02-25T00:48:49.036Z,77.12
2023-02-25T00:51:19.465Z,77.29
2023-02-25T00:53:53.056Z,77.89
2023-02-25T00:56:27.011Z,78.10
2023-02-25T00:58:54.127Z,78.92
2023-02-25T01:01:37.061Z,78.14
2023-02-25T01:04:03.994Z,77.83
2023-02-25T01:06:33.052Z,78.69
2023-02-25T01:09:07.099Z,78.28
2023-02-25T01:11:36.417Z,78.51
2023-02-25T01:14:13.033Z,78.27
2023-02-25T01:16:47.048Z,79.09
2023-02-25T01:19:18.411Z,79.68
2023-02-25T01:21:55.051Z,79.38
2023-02-25T01:24:38.083Z,79.24
2023-02-25T01:27:10.992Z,78.67
2023-02-25T01:29:40.575Z,78.37
2023-02-25T01:32:22.744Z,79.03
2023-02-25T01:34:55.994Z,78.88
2023-02-25T01:37:22.802Z,79.08
2023-02-25T01:39:56.019Z,78.43
2023-02-25T01:42:24.403Z,78.75
2023-02-25T01:45:29.039Z,78.59
2023-02-25T01:48:02.310Z,78.60
2023-02-25T01:50:51.013Z,79.30
2023-02-25T01:53:23.805Z,79.50
2023-02-25T01:56:01.021Z,79.51
2023-02-25T01:58:28.099Z,79.66
2023-02-25T02:01:02.151Z,79.50
2023-02-25T02:03:34.263Z,80.03
2023-02-25T02:06:23.410Z,80.32
2023-02-25T02:08:50.648Z,80.31
2023-02-25T02:11:31.054Z,79.94
2023-02-25T02:14:06.088Z,80.45
2023-02-25T02:16:44.718Z,80.23
2023-02-25T02:19:41.036Z,80.35
2023-02-25T02:22:31.036Z,80.31
2023-02-25T02:25:13.127Z,80.38
2023-02-25T02:28:17.306Z,80.19
2023-02-25T02:31:15.308Z,80.61
2023-02-25T02:34:14.059Z,80.53
2023-02-25T02:37:13.197Z,81.01
2023-02-25T02:40:12.073Z,80.78
2023-02-25T02:42:48.761Z,80.29
2023-02-25T02:45:25.106Z,80.14
2023-02-25T02:47:58.318Z,80.84
2023-02-25T02:50:44.110Z,80.60
2023-02-25T02:53:20.320Z,80.25
2023-02-25T02:56:13.000Z,80.26
2023-02-25T02:58:53.123Z,80.60
2023-02-25T03:01:38.150Z,79.99
2023-02-25T03:04:18.147Z,80.33
2023-02-25T03:06:56.058Z,80.46
2023-02-25T03:09:31.163Z,80.14
2023-02-25T03:12:04.201Z,80.27
2023-02-25T03:14:34.104Z,80.63
2023-02-25T03:17:28.061Z,81.02
2023-02-25T03:20:17.355Z,80.57
2023-02-25T03:22:55.026Z,80.97
2023-02-25T03:25:28.080Z,80.65
2023-02-25T03:27:57.246Z,80.85
2023-02-25T03:30:36.189Z,80.42
2023-02-25T03:33:16.210Z,81.11
2023-02-25T03:35:53.084Z,80.71
2023-02-25T03:38:23.831Z,80.61
2023-02-25T03:41:17.787Z,80.37
2023-02-25T03:43:55.179Z,79.96
2023-02-25T03:46:30.140Z,80.41
2023-02-25T03:49:05.706Z,80.14
2023-02-25T03:51:49.187Z,80.19
2023-02-25T03:54:16.854Z,80.09
2023-02-25T03:56:54.167Z,79.95
2023-02-25T03:59:23.861Z,79.79
2023-02-25T04:02:03.658Z,80.04
2023-02-25T04:04:30.472Z,79.61
2023-02-25T04:07:04.122Z,79.62
2023-02-25T04:09:30.799Z,79.55
2023-02-25T04:12:04.067Z,79.41
2023-02-25T04:14:30.909Z,79.54
2023-02-25T04:17:04.327Z,79.37
2023-02-25T04:19:31.221Z,79.47
2023-02-25T04:22:07.174Z,79.08
2023-02-25T04:24:45.612Z,78.93
2023-02-25T04:27:15.767Z,79.06
2023-02-25T04:29:56.121Z,79.17
2023-02-25T04:32:29.178Z,79.00
2023-02-25T04:35:02.163Z,79.20
2023-02-25T04:37:29.982Z,79.06
2023-02-25T04:40:03.214Z,79.28
2023-02-25T04:42:30.034Z,78.76
2023-02-25T04:45:03.171Z,78.63
2023-02-25T04:47:29.858Z,78.56
2023-02-25T04:50:10.201Z,78.75
2023-02-25T04:52:43.490Z,78.82
2023-02-25T04:55:20.183Z,78.69
2023-02-25T04:57:47.343Z,78.72
2023-02-25T05:00:24.249Z,79.09
2023-02-25T05:03:13.269Z,79.23
2023-02-25T05:05:46.177Z,79.28
2023-02-25T05:08:12.916Z,79.27
2023-02-25T05:10:48.231Z,79.24
2023-02-25T05:13:15.003Z,79.47
2023-02-25T05:15:58.265Z,79.74
2023-02-25T05:18:31.240Z,80.16
2023-02-25T05:21:08.565Z,80.11
2023-02-25T05:23:35.469Z,79.85
2023-02-25T05:26:13.618Z,79.86
2023-02-25T05:28:47.154Z,79.79
2023-02-25T05:31:20.379Z,79.67
2023-02-25T05:33:54.634Z,79.34
2023-02-25T05:36:23.976Z,79.78
2023-02-25T05:39:05.175Z,79.68
2023-02-25T05:41:32.910Z,79.78
2023-02-25T05:44:06.198Z,79.40
2023-02-25T05:46:33.033Z,79.81
2023-02-25T05:49:10.356Z,79.52
2023-02-25T05:51:45.375Z,79.70
2023-02-25T05:54:19.260Z,79.63
2023-02-25T05:56:46.110Z,79.78
2023-02-25T05:59:19.204Z,79.41
2023-02-25T06:01:45.928Z,79.92
2023-02-25T06:04:19.204Z,80.34
2023-02-25T06:06:54.998Z,80.43
2023-02-25T06:09:28.186Z,80.28
2023-02-25T06:11:55.198Z,80.44
2023-02-25T06:14:21.974Z,80.52
2023-02-25T06:16:55.226Z,80.60
2023-02-25T06:19:29.190Z,80.78
2023-02-25T06:22:02.246Z,81.08
2023-02-25T06:24:28.891Z,81.19
2023-02-25T06:27:02.171Z,81.41
2023-02-25T06:29:28.949Z,81.27
2023-02-25T06:32:02.373Z,81.50
2023-02-25T06:34:32.726Z,81.74
2023-02-25T06:36:59.639Z,81.65
2023-02-25T06:39:33.186Z,82.06
2023-02-25T06:42:00.218Z,81.75
2023-02-25T06:44:37.105Z,81.82
2023-02-25T06:47:03.870Z,81.77
2023-02-25T06:49:38.189Z,82.18
2023-02-25T06:52:18.253Z,82.34
2023-02-25T06:54:52.197Z,81.88
2023-02-25T06:57:26.210Z,82.01
2023-02-25T07:00:02.174Z,82.06
2023-02-25T07:02:37.959Z,82.19
2023-02-25T07:05:12.432Z,82.23
2023-02-25T07:07:39.170Z,82.20
2023-02-25T07:10:13.132Z,82.22
2023-02-25T07:12:39.709Z,82.26
2023-02-25T07:15:13.219Z,82.73
2023-02-25T07:17:39.863Z,82.60
2023-02-25T07:20:14.275Z,82.65
2023-02-25T07:22:42.281Z,82.59
2023-02-25T07:25:21.234Z,82.70
2023-02-25T07:27:48.031Z,82.71
2023-02-25T07:30:15.734Z,82.80
2023-02-25T07:32:49.183Z,82.96
2023-02-25T07:35:16.087Z,82.83
2023-02-25T07:37:49.159Z,83.22
2023-02-25T07:40:17.069Z,83.05
2023-02-25T07:42:50.320Z,83.14
2023-02-25T07:45:17.563Z,83.26
2023-02-25T07:47:51.139Z,83.37
2023-02-25T07:50:24.475Z,83.29
2023-02-25T07:52:57.262Z,83.69
2023-02-25T07:55:24.651Z,83.30
2023-02-25T07:57:58.252Z,83.31
2023-02-25T08:00:31.244Z,83.83
2023-02-25T08:02:58.675Z,84.39
2023-02-25T08:05:32.202Z,83.72
2023-02-25T08:07:58.900Z,84.38
2023-02-25T08:10:32.342Z,84.46
2023-02-25T08:12:59.062Z,84.08
2023-02-25T08:15:32.496Z,84.02
2023-02-25T08:17:59.295Z,83.79
2023-02-25T08:20:32.447Z,83.98
2023-02-25T08:22:59.244Z,83.98
2023-02-25T08:25:34.178Z,83.58
2023-02-25T08:28:08.156Z,83.59
2023-02-25T08:30:42.251Z,83.25
2023-02-25T08:33:15.207Z,83.11
2023-02-25T08:35:41.908Z,82.66
2023-02-25T08:38:16.252Z,82.46
2023-02-25T08:40:43.474Z,82.21
2023-02-25T08:43:17.224Z,82.42
2023-02-25T08:45:44.013Z,81.88
2023-02-25T08:48:17.313Z,82.23
2023-02-25T08:50:52.427Z,81.73
2023-02-25T08:53:26.237Z,82.09
2023-02-25T08:55:54.000Z,81.99
2023-02-25T08:58:27.184Z,81.89
2023-02-25T09:00:53.778Z,81.91
2023-02-25T09:03:27.316Z,82.06
2023-02-25T09:06:06.417Z,81.95
2023-02-25T09:08:39.259Z,82.14
2023-02-25T09:11:07.191Z,82.32
2023-02-25T09:13:34.075Z,82.41
2023-02-25T09:16:08.260Z,82.47
2023-02-25T09:18:35.723Z,81.40
2023-02-25T09:21:11.564Z,81.03
2023-02-25T09:23:38.474Z,80.84
2023-02-25T09:26:19.384Z,81.17
2023-02-25T09:28:47.578Z,81.09
2023-02-25T09:31:25.165Z,81.11
2023-02-25T09:33:52.455Z,78.23
2023-02-25T09:36:29.217Z,77.17
2023-02-25T09:38:57.716Z,74.29
2023-02-25T09:41:37.322Z,72.38
2023-02-25T09:44:14.498Z,72.72
2023-02-25T09:46:56.255Z,71.96
2023-02-25T09:50:14.225Z,71.71
2023-02-25T09:52:55.193Z,69.37
2023-02-25T09:55:36.477Z,69.64
2023-02-25T09:58:24.179Z,68.59
2023-02-25T10:01:01.818Z,68.05
2023-02-25T10:04:03.403Z,66.35
2023-02-25T10:06:42.479Z,63.77
2023-02-25T10:09:35.234Z,61.97
2023-02-25T10:12:13.374Z,61.98
2023-02-25T10:14:55.306Z,60.26
2023-02-25T10:17:24.860Z,57.33
2023-02-25T10:20:25.446Z,57.18
2023-02-25T10:23:36.918Z,55.07
2023-02-25T10:26:40.586Z,56.20
2023-02-25T10:29:15.646Z,56.65
2023-02-25T10:31:52.459Z,54.34
2023-02-25T10:34:26.377Z,55.23
2023-02-25T10:37:05.292Z,57.73
2023-02-25T10:39:32.363Z,56.94
2023-02-25T10:42:05.258Z,58.50
2023-02-25T10:44:38.246Z,58.65
2023-02-25T10:47:13.265Z,58.75
2023-02-25T10:50:45.011Z,58.87
2023-02-25T10:53:24.232Z,57.15
2023-02-25T10:56:09.849Z,54.05
2023-02-25T10:59:12.343Z,54.80
2023-02-25T11:01:48.255Z,50.68
2023-02-25T11:04:27.297Z,49.84
2023-02-25T11:06:54.090Z,52.12
2023-02-25T11:09:27.337Z,48.90
2023-02-25T11:12:03.394Z,50.51
2023-02-25T11:14:38.308Z,50.80
2023-02-25T11:17:12.964Z,50.12
2023-02-25T11:20:07.465Z,48.64
2023-02-25T11:22:43.469Z,50.00
2023-02-25T11:25:24.409Z,49.32
2023-02-25T11:27:58.784Z,47.68
2023-02-25T11:30:43.757Z,48.72
2023-02-25T11:33:33.374Z,44.52
2023-02-25T11:36:14.331Z,44.31
2023-02-25T11:38:49.250Z,42.74
2023-02-25T11:41:22.118Z,44.65
2023-02-25T11:43:56.351Z,43.67
2023-02-25T11:46:37.361Z,43.10
2023-02-25T11:49:22.291Z,39.48
2023-02-25T11:52:25.257Z,41.83
2023-02-25T11:55:09.013Z,43.31
2023-02-25T11:58:16.238Z,41.88
2023-02-25T12:00:53.325Z,44.75
2023-02-25T12:03:41.330Z,41.40
2023-02-25T12:06:41.170Z,42.24
2023-02-25T12:09:30.312Z,41.23
2023-02-25T12:12:18.211Z,41.45
2023-02-25T12:15:06.489Z,40.55
2023-02-25T12:18:25.356Z,41.76
2023-02-25T12:21:22.575Z,40.28
2023-02-25T12:24:14.815Z,39.06
2023-02-25T12:27:25.327Z,37.03
2023-02-25T12:30:03.651Z,39.27
2023-02-25T12:32:42.366Z,39.35
2023-02-25T12:35:41.433Z,40.97
2023-02-25T12:38:24.359Z,41.54
2023-02-25T12:41:16.886Z,43.76
2023-02-25T12:43:59.361Z,44.65
2023-02-25T12:46:47.673Z,44.18
2023-02-25T12:49:42.555Z,41.81
2023-02-25T12:52:26.705Z,41.16
2023-02-25T12:55:21.626Z,40.18
2023-02-25T12:58:36.339Z,41.57
2023-02-25T13:01:48.352Z,41.81
2023-02-25T13:04:40.303Z,38.54
2023-02-25T13:07:22.888Z,39.76
2023-02-25T13:10:15.490Z,39.48
2023-02-25T13:13:00.747Z,38.67
2023-02-25T13:16:05.339Z,38.62
2023-02-25T13:19:07.093Z,39.47
2023-02-25T13:22:16.319Z,39.83
2023-02-25T13:25:21.644Z,39.70
2023-02-25T13:28:05.104Z,39.67
2023-02-25T13:30:56.271Z,36.63
2023-02-25T13:34:03.319Z,37.07
2023-02-25T13:37:11.502Z,38.13
2023-02-25T13:40:01.420Z,39.00
2023-02-25T13:43:19.719Z,39.48
2023-02-25T13:45:56.387Z,37.10
2023-02-25T13:49:04.362Z,35.88
2023-02-25T13:52:21.278Z,34.39
2023-02-25T13:55:06.353Z,35.51
2023-02-25T13:58:10.701Z,36.53
2023-02-25T14:01:16.430Z,36.71
2023-02-25T14:04:06.504Z,37.36
2023-02-25T14:07:17.874Z,38.05
2023-02-25T14:09:50.804Z,38.74
2023-02-25T14:12:38.406Z,39.21
2023-02-25T14:15:41.318Z,38.64
2023-02-25T14:18:36.398Z,35.92
2023-02-25T14:21:42.354Z,37.08
2023-02-25T14:24:31.569Z,37.40
2023-02-25T14:27:35.352Z,38.09
2023-02-25T14:30:18.317Z,38.35
2023-02-25T14:33:29.392Z,36.55
2023-02-25T14:36:28.922Z,38.79
2023-02-25T14:39:44.345Z,38.45
2023-02-25T14:42:36.383Z,35.73
2023-02-25T14:45:12.398Z,35.92
2023-02-25T14:48:01.429Z,36.16
2023-02-25T14:50:46.640Z,36.08
2023-02-25T14:53:45.444Z,35.66
2023-02-25T14:56:51.332Z,36.88
2023-02-25T14:59:59.417Z,36.65
2023-02-25T15:03:23.346Z,35.75
2023-02-25T15:06:23.126Z,34.92
2023-02-25T15:08:56.378Z,36.08
2023-02-25T15:12:13.359Z,36.74
2023-02-25T15:15:05.431Z,36.87
2023-02-25T15:18:10.197Z,37.74
2023-02-25T15:20:48.439Z,36.82
2023-02-25T15:23:17.019Z,37.55
2023-02-25T15:25:50.446Z,37.41
2023-02-25T15:28:29.268Z,37.08
2023-02-25T15:31:05.443Z,38.31
2023-02-25T15:33:42.163Z,38.09
2023-02-25T15:36:22.012Z,37.79
2023-02-25T15:38:54.391Z,38.49
2023-02-25T15:41:34.383Z,38.67
2023-02-25T15:44:19.407Z,39.19
2023-02-25T15:47:25.435Z,39.08
2023-02-25T15:49:59.205Z,39.89
2023-02-25T15:53:09.402Z,41.26
2023-02-25T15:55:39.434Z,41.56
2023-02-25T15:58:32.484Z,43.36
2023-02-25T16:01:05.970Z,43.85
2023-02-25T16:03:43.344Z,44.56
2023-02-25T16:06:45.414Z,45.15
2023-02-25T16:09:24.508Z,45.38
2023-02-25T16:11:57.153Z,46.02
2023-02-25T16:14:40.508Z,46.29
2023-02-25T16:17:26.427Z,47.04
2023-02-25T16:20:05.423Z,48.04
2023-02-25T16:22:32.330Z,47.70
2023-02-25T16:25:08.573Z,48.23
2023-02-25T16:28:18.382Z,48.49
2023-02-25T16:31:18.420Z,49.11
2023-02-25T16:34:00.390Z,49.67
2023-02-25T16:36:43.390Z,49.13
2023-02-25T16:39:20.001Z,49.81
2023-02-25T16:41:54.428Z,50.03
2023-02-25T16:44:33.996Z,49.36
2023-02-25T16:47:09.626Z,49.58
2023-02-25T16:49:49.362Z,49.89
2023-02-25T16:52:39.426Z,49.38
2023-02-25T16:55:19.633Z,49.82
2023-02-25T16:58:14.837Z,49.55
2023-02-25T17:01:21.912Z,49.82
2023-02-25T17:03:55.486Z,50.09
2023-02-25T17:06:23.416Z,50.72
2023-02-25T17:09:13.403Z,50.92
2023-02-25T17:11:56.916Z,50.93
2023-02-25T17:14:31.689Z,51.10
2023-02-25T17:16:59.574Z,51.50
2023-02-25T17:19:33.417Z,51.98
2023-02-25T17:22:00.267Z,51.70
2023-02-25T17:24:37.461Z,51.25
2023-02-25T17:27:13.008Z,51.50
2023-02-25T17:29:46.498Z,52.21
2023-02-25T17:32:24.647Z,52.28
2023-02-25T17:35:02.424Z,52.78
2023-02-25T17:37:37.438Z,53.10
2023-02-25T17:40:08.380Z,53.17
2023-02-25T17:42:48.467Z,53.76
2023-02-25T17:45:41.319Z,54.33
2023-02-25T17:48:30.422Z,54.48
2023-02-25T17:51:10.744Z,54.64
2023-02-25T17:54:02.441Z,55.35
2023-02-25T17:56:38.487Z,55.37
2023-02-25T17:59:34.481Z,55.09
2023-02-25T18:02:24.164Z,56.13
2023-02-25T18:05:02.492Z,55.58
2023-02-25T18:07:39.640Z,55.55
2023-02-25T18:10:29.489Z,55.71
2023-02-25T18:12:56.639Z,55.65
2023-02-25T18:15:33.454Z,56.53
2023-02-25T18:18:03.652Z,57.52
2023-02-25T18:20:43.453Z,60.76
2023-02-25T18:23:24.628Z,62.00
2023-02-25T18:26:26.626Z,62.74
2023-02-25T18:28:55.536Z,63.52
2023-02-25T18:31:29.702Z,64.89
2023-02-25T18:33:56.453Z,65.69
2023-02-25T18:36:32.493Z,66.79
2023-02-25T18:39:04.032Z,67.01
2023-02-25T18:41:38.177Z,66.45
2023-02-25T18:44:13.249Z,66.38
2023-02-25T18:46:53.348Z,65.52
2023-02-25T18:49:20.180Z,65.08
2023-02-25T18:52:12.545Z,65.94
2023-02-25T18:54:41.115Z,65.71
2023-02-25T18:57:25.089Z,65.44
2023-02-25T18:59:53.048Z,65.57
2023-02-25T19:02:37.969Z,65.28
2023-02-25T19:05:07.340Z,64.56
2023-02-25T19:07:47.829Z,65.22
2023-02-25T19:10:24.433Z,65.78
2023-02-25T19:13:00.435Z,65.13
2023-02-25T19:15:33.997Z,65.06
2023-02-25T19:18:01.045Z,65.57
2023-02-25T19:20:34.644Z,65.41
2023-02-25T19:23:11.224Z,64.93
2023-02-25T19:25:42.661Z,64.91
2023-02-25T19:28:16.666Z,64.40
2023-02-25T19:30:44.161Z,64.65
2023-02-25T19:33:18.630Z,64.23
2023-02-25T19:35:45.398Z,64.14
2023-02-25T19:38:16.481Z,64.69
2023-02-25T19:40:54.743Z,64.46
2023-02-25T19:43:28.869Z,64.87
2023-02-25T19:45:55.809Z,65.61
2023-02-25T19:48:29.608Z,66.12
2023-02-25T19:51:02.486Z,66.67
2023-02-25T19:53:36.830Z,66.89
2023-02-25T19:56:10.908Z,67.48
2023-02-25T19:58:44.714Z,67.36
2023-02-25T20:01:12.334Z,67.08
2023-02-25T20:03:39.335Z,66.51
2023-02-25T20:06:17.541Z,66.58
2023-02-25T20:08:46.080Z,66.48
2023-02-25T20:11:12.944Z,67.32
2023-02-25T20:13:46.795Z,67.32
2023-02-25T20:16:20.583Z,68.37
2023-02-25T20:18:51.070Z,68.13
2023-02-25T20:21:28.583Z,68.65
2023-02-25T20:24:04.687Z,70.40
2023-02-25T20:26:33.786Z,71.51
2023-02-25T20:29:07.519Z,72.18
2023-02-25T20:31:35.246Z,71.87
2023-02-25T20:34:08.609Z,71.47
2023-02-25T20:36:45.512Z,71.13
2023-02-25T20:39:37.649Z,70.94
2023-02-25T20:42:20.030Z,71.12
2023-02-25T20:44:58.584Z,71.38
2023-02-25T20:47:26.735Z,71.94
2023-02-25T20:50:01.570Z,72.35
2023-02-25T20:52:50.378Z,72.98
2023-02-25T20:55:23.633Z,73.24
2023-02-25T20:57:52.229Z,74.25
2023-02-25T21:00:20.872Z,74.69
2023-02-25T21:02:59.545Z,74.67
2023-02-25T21:05:33.556Z,74.33
2023-02-25T21:08:00.282Z,74.68
2023-02-25T21:10:27.186Z,74.46
2023-02-25T21:13:00.686Z,74.43
2023-02-25T21:15:27.816Z,73.70
2023-02-25T21:18:01.573Z,74.39
2023-02-25T21:20:28.688Z,74.06
2023-02-25T21:23:01.790Z,73.42
2023-02-25T21:25:31.091Z,72.98
2023-02-25T21:28:05.586Z,72.89
2023-02-25T21:30:32.801Z,72.83
2023-02-25T21:32:59.867Z,72.91
2023-02-25T21:35:33.790Z,72.62
2023-02-25T21:38:00.932Z,72.65
2023-02-25T21:40:35.220Z,72.46
2023-02-25T21:43:02.266Z,72.54
2023-02-25T21:45:36.037Z,72.53
2023-02-25T21:48:02.850Z,72.58
2023-02-25T21:50:36.624Z,72.69
2023-02-25T21:53:10.366Z,72.87
2023-02-25T21:55:43.587Z,73.29
2023-02-25T21:58:11.762Z,74.48
2023-02-25T22:00:45.787Z,74.67
2023-02-25T22:03:12.535Z,73.62
2023-02-25T22:05:52.115Z,72.85
2023-02-25T22:08:18.915Z,73.09
2023-02-25T22:10:53.652Z,73.13
2023-02-25T22:13:26.635Z,72.80
2023-02-25T22:16:01.129Z,72.78
2023-02-25T22:18:34.762Z,72.58
2023-02-25T22:21:20.447Z,72.18
2023-02-25T22:23:55.602Z,71.94
2023-02-25T22:26:32.590Z,71.99
2023-02-25T22:29:08.593Z,71.97
2023-02-25T22:31:35.695Z,72.42
2023-02-25T22:34:10.751Z,72.30
2023-02-25T22:36:37.743Z,72.37
2023-02-25T22:39:13.662Z,73.13
2023-02-25T22:41:40.805Z,72.90
2023-02-25T22:44:14.579Z,73.18
2023-02-25T22:46:41.819Z,72.58
2023-02-25T22:49:18.503Z,72.64
2023-02-25T22:51:54.579Z,73.22
2023-02-25T22:54:34.721Z,73.90
2023-02-25T22:57:01.685Z,74.04
2023-02-25T22:59:35.651Z,73.67
2023-02-25T23:02:02.916Z,74.32
2023-02-25T23:04:36.682Z,74.14
2023-02-25T23:07:03.456Z,74.65
2023-02-25T23:09:30.876Z,75.05
2023-02-25T23:12:05.423Z,75.43
2023-02-25T23:14:34.500Z,75.13
2023-02-25T23:17:09.109Z,75.47
2023-02-25T23:19:36.072Z,75.94
2023-02-25T23:22:16.654Z,76.71
2023-02-25T23:24:43.409Z,76.11
2023-02-25T23:27:16.687Z,75.90
2023-02-25T23:29:43.305Z,75.80
2023-02-25T23:32:18.040Z,76.62
2023-02-25T23:34:44.778Z,76.41
2023-02-25T23:37:20.781Z,75.81
2023-02-25T23:39:47.785Z,75.72
2023-02-25T23:42:22.625Z,75.83
2023-02-25T23:44:49.329Z,75.67
2023-02-25T23:47:24.642Z,75.74
2023-02-25T23:49:51.264Z,75.74
2023-02-25T23:52:31.670Z,75.95
2023-02-25T23:55:06.952Z,76.09
2023-02-25T23:57:40.645Z,76.93
